Pskem, Uzbekistan
Current Conditions -  °F | °C
As of 1:30 AM on Wednesday 28 Jan 2015 (Local Time) from UAII Reporting Station
Clear Clear  
Wind Chill: -2°   Ceiling: Unl
Heat Index:   Visibility: 5mi
Dew Point:   Wind: 7mph
Humidity: 73%   Direction: 130°SE
Pressure: 30.3"   Gusts: NA
Location:  41.92°N, 70.37°E
Report Text: UAII 272030Z 13003MPS 8000 NSC M13/M17 Q1026 R10/820250 NOSIGRMK QFE734/0979
Loading
Personal Weather Stations






























Interactive Weather Map New forecast layout! Learn more

10-Day Weather Forecast

Advertisements
Track Severe Weather on mobile